sensor_id;sensor_type;location;lat;lon;timestamp;pressure;altitude;pressure_sealevel;temperature;humidity
72925;BME280;61070;50.794;7.054;2022-07-18T00:02:09;101740.72;;;18.89;56.68
72925;BME280;61070;50.794;7.054;2022-07-18T00:04:35;101742.47;;;18.90;56.55
72925;BME280;61070;50.794;7.054;2022-07-18T00:07:00;101736.28;;;18.88;56.96
72925;BME280;61070;50.794;7.054;2022-07-18T00:09:26;101732.25;;;18.74;57.53
72925;BME280;61070;50.794;7.054;2022-07-18T00:11:52;101735.63;;;18.80;57.53
72925;BME280;61070;50.794;7.054;2022-07-18T00:14:19;101733.03;;;18.77;57.87
72925;BME280;61070;50.794;7.054;2022-07-18T00:16:44;101734.88;;;18.75;57.41
72925;BME280;61070;50.794;7.054;2022-07-18T00:19:10;101739.31;;;18.76;57.58
72925;BME280;61070;50.794;7.054;2022-07-18T00:21:36;101742.94;;;18.75;57.03
72925;BME280;61070;50.794;7.054;2022-07-18T00:24:02;101744.72;;;18.75;56.99
72925;BME280;61070;50.794;7.054;2022-07-18T00:26:27;101736.72;;;18.73;56.69
72925;BME280;61070;50.794;7.054;2022-07-18T00:28:53;101737.00;;;18.64;56.67
72925;BME280;61070;50.794;7.054;2022-07-18T00:31:19;101737.97;;;18.60;56.61
72925;BME280;61070;50.794;7.054;2022-07-18T00:33:44;101734.47;;;18.58;57.00
72925;BME280;61070;50.794;7.054;2022-07-18T00:36:10;101734.31;;;18.64;56.94
72925;BME280;61070;50.794;7.054;2022-07-18T00:38:35;101732.63;;;18.60;56.68
72925;BME280;61070;50.794;7.054;2022-07-18T00:41:01;101744.34;;;18.56;56.85
72925;BME280;61070;50.794;7.054;2022-07-18T00:43:26;101725.03;;;18.43;56.94
72925;BME280;61070;50.794;7.054;2022-07-18T00:45:52;101730.47;;;18.40;57.10
72925;BME280;61070;50.794;7.054;2022-07-18T00:48:18;101729.66;;;18.38;57.18
72925;BME280;61070;50.794;7.054;2022-07-18T00:50:44;101725.31;;;18.32;57.15
72925;BME280;61070;50.794;7.054;2022-07-18T00:53:10;101735.50;;;18.20;57.23
72925;BME280;61070;50.794;7.054;2022-07-18T00:55:40;101725.97;;;18.08;57.57
72925;BME280;61070;50.794;7.054;2022-07-18T00:58:09;101728.66;;;18.08;58.03
72925;BME280;61070;50.794;7.054;2022-07-18T01:00:36;101730.91;;;17.91;58.75
72925;BME280;61070;50.794;7.054;2022-07-18T01:03:20;101719.63;;;17.78;59.15
72925;BME280;61070;50.794;7.054;2022-07-18T01:05:46;101723.38;;;17.71;59.10
72925;BME280;61070;50.794;7.054;2022-07-18T01:08:11;101726.19;;;17.63;59.04
72925;BME280;61070;50.794;7.054;2022-07-18T01:10:36;101732.66;;;17.55;59.31
72925;BME280;61070;50.794;7.054;2022-07-18T01:13:02;101731.09;;;17.46;58.99
72925;BME280;61070;50.794;7.054;2022-07-18T01:15:27;101729.34;;;17.43;58.97
72925;BME280;61070;50.794;7.054;2022-07-18T01:17:54;101727.63;;;17.41;58.81
72925;BME280;61070;50.794;7.054;2022-07-18T01:20:19;101731.16;;;17.44;58.67
72925;BME280;61070;50.794;7.054;2022-07-18T01:22:44;101724.88;;;17.44;58.53
72925;BME280;61070;50.794;7.054;2022-07-18T01:25:10;101732.59;;;17.58;58.46
72925;BME280;61070;50.794;7.054;2022-07-18T01:27:36;101722.19;;;17.45;59.10
72925;BME280;61070;50.794;7.054;2022-07-18T01:30:03;101717.00;;;17.38;59.19
72925;BME280;61070;50.794;7.054;2022-07-18T01:32:29;101715.13;;;17.41;59.10
72925;BME280;61070;50.794;7.054;2022-07-18T01:34:54;101713.44;;;17.37;59.31
72925;BME280;61070;50.794;7.054;2022-07-18T01:37:20;101714.28;;;17.39;59.32
72925;BME280;61070;50.794;7.054;2022-07-18T01:39:46;101711.53;;;17.42;59.64
72925;BME280;61070;50.794;7.054;2022-07-18T01:42:12;101713.28;;;17.43;59.80
72925;BME280;61070;50.794;7.054;2022-07-18T01:44:38;101713.50;;;17.36;60.47
72925;BME280;61070;50.794;7.054;2022-07-18T01:47:06;101708.53;;;17.17;61.15
72925;BME280;61070;50.794;7.054;2022-07-18T01:49:32;101713.25;;;17.06;61.39
72925;BME280;61070;50.794;7.054;2022-07-18T01:51:59;101716.78;;;17.08;61.49
72925;BME280;61070;50.794;7.054;2022-07-18T01:54:27;101720.38;;;17.07;61.42
72925;BME280;61070;50.794;7.054;2022-07-18T01:56:53;101719.41;;;17.11;60.79
72925;BME280;61070;50.794;7.054;2022-07-18T01:59:18;101718.47;;;17.14;60.53
72925;BME280;61070;50.794;7.054;2022-07-18T02:01:44;101716.59;;;17.17;60.11
72925;BME280;61070;50.794;7.054;2022-07-18T02:04:10;101724.66;;;17.16;59.85
72925;BME280;61070;50.794;7.054;2022-07-18T02:06:36;101715.63;;;17.20;59.66
72925;BME280;61070;50.794;7.054;2022-07-18T02:09:02;101712.97;;;17.18;59.61
72925;BME280;61070;50.794;7.054;2022-07-18T02:11:28;101718.34;;;17.18;59.59
72925;BME280;61070;50.794;7.054;2022-07-18T02:13:53;101714.69;;;17.23;59.22
72925;BME280;61070;50.794;7.054;2022-07-18T02:16:18;101708.47;;;17.21;59.25
72925;BME280;61070;50.794;7.054;2022-07-18T02:18:43;101713.97;;;17.14;59.37
72925;BME280;61070;50.794;7.054;2022-07-18T02:21:09;101714.97;;;17.10;59.78
72925;BME280;61070;50.794;7.054;2022-07-18T02:23:35;101714.06;;;17.11;59.48
72925;BME280;61070;50.794;7.054;2022-07-18T02:26:01;101714.06;;;17.10;59.89
72925;BME280;61070;50.794;7.054;2022-07-18T02:28:26;101706.06;;;17.08;59.93
72925;BME280;61070;50.794;7.054;2022-07-18T02:30:52;101708.72;;;17.10;60.10
72925;BME280;61070;50.794;7.054;2022-07-18T02:33:18;101709.72;;;17.06;60.32
72925;BME280;61070;50.794;7.054;2022-07-18T02:35:43;101706.31;;;16.99;61.01
72925;BME280;61070;50.794;7.054;2022-07-18T02:38:08;101709.00;;;16.98;61.09
72925;BME280;61070;50.794;7.054;2022-07-18T02:40:34;101710.03;;;16.92;61.34
72925;BME280;61070;50.794;7.054;2022-07-18T02:43:00;101705.53;;;16.93;61.03
72925;BME280;61070;50.794;7.054;2022-07-18T02:45:25;101714.63;;;16.85;61.48
72925;BME280;61070;50.794;7.054;2022-07-18T02:47:51;101709.28;;;16.84;61.47
72925;BME280;61070;50.794;7.054;2022-07-18T02:50:17;101705.91;;;16.76;62.07
72925;BME280;61070;50.794;7.054;2022-07-18T02:52:43;101716.63;;;16.74;62.08
72925;BME280;61070;50.794;7.054;2022-07-18T02:55:10;101716.75;;;16.70;62.04
72925;BME280;61070;50.794;7.054;2022-07-18T02:57:35;101718.50;;;16.71;62.11
72925;BME280;61070;50.794;7.054;2022-07-18T03:00:03;101707.88;;;16.66;62.10
72925;BME280;61070;50.794;7.054;2022-07-18T03:02:29;101699.94;;;16.62;62.26
72925;BME280;61070;50.794;7.054;2022-07-18T03:04:54;101705.47;;;16.52;62.27
72925;BME280;61070;50.794;7.054;2022-07-18T03:07:20;101703.69;;;16.51;62.39
72925;BME280;61070;50.794;7.054;2022-07-18T03:09:45;101706.47;;;16.47;62.66
72925;BME280;61070;50.794;7.054;2022-07-18T03:12:10;101706.50;;;16.45;62.45
72925;BME280;61070;50.794;7.054;2022-07-18T03:14:36;101711.97;;;16.39;63.04
72925;BME280;61070;50.794;7.054;2022-07-18T03:17:01;101713.88;;;16.34;63.55
72925;BME280;61070;50.794;7.054;2022-07-18T03:19:26;101712.09;;;16.33;63.37
72925;BME280;61070;50.794;7.054;2022-07-18T03:21:52;101714.84;;;16.28;63.68
72925;BME280;61070;50.794;7.054;2022-07-18T03:24:17;101713.06;;;16.29;63.76
72925;BME280;61070;50.794;7.054;2022-07-18T03:26:43;101709.56;;;16.25;63.73
72925;BME280;61070;50.794;7.054;2022-07-18T03:29:09;101707.84;;;16.23;63.85
72925;BME280;61070;50.794;7.054;2022-07-18T03:31:35;101709.56;;;16.25;63.98
72925;BME280;61070;50.794;7.054;2022-07-18T03:34:01;101714.13;;;16.19;64.00
72925;BME280;61070;50.794;7.054;2022-07-18T03:36:26;101706.16;;;16.17;63.70
72925;BME280;61070;50.794;7.054;2022-07-18T03:38:52;101706.13;;;16.19;63.78
72925;BME280;61070;50.794;7.054;2022-07-18T03:41:17;101706.03;;;16.25;63.12
72925;BME280;61070;50.794;7.054;2022-07-18T03:43:42;101706.72;;;16.35;62.34
72925;BME280;61070;50.794;7.054;2022-07-18T03:46:08;101700.50;;;16.34;61.80
72925;BME280;61070;50.794;7.054;2022-07-18T03:48:34;101704.97;;;16.34;61.59
72925;BME280;61070;50.794;7.054;2022-07-18T03:51:00;101698.63;;;16.38;61.24
72925;BME280;61070;50.794;7.054;2022-07-18T03:53:25;101697.69;;;16.40;61.07
72925;BME280;61070;50.794;7.054;2022-07-18T03:55:51;101699.50;;;16.38;61.14
72925;BME280;61070;50.794;7.054;2022-07-18T03:58:17;101699.59;;;16.35;61.21
72925;BME280;61070;50.794;7.054;2022-07-18T04:00:42;101694.31;;;16.30;61.61
72925;BME280;61070;50.794;7.054;2022-07-18T04:03:07;101694.41;;;16.26;62.21
72925;BME280;61070;50.794;7.054;2022-07-18T04:05:33;101692.50;;;16.33;62.02
72925;BME280;61070;50.794;7.054;2022-07-18T04:07:58;101691.56;;;16.35;62.43
72925;BME280;61070;50.794;7.054;2022-07-18T04:10:23;101701.38;;;16.35;62.61
72925;BME280;61070;50.794;7.054;2022-07-18T04:12:51;101698.69;;;16.35;62.57
72925;BME280;61070;50.794;7.054;2022-07-18T04:15:19;101703.78;;;16.48;62.27
72925;BME280;61070;50.794;7.054;2022-07-18T04:17:46;101702.13;;;16.41;62.50
72925;BME280;61070;50.794;7.054;2022-07-18T04:20:12;101704.63;;;16.50;62.35
72925;BME280;61070;50.794;7.054;2022-07-18T04:23:05;101698.31;;;16.53;62.15
72925;BME280;61070;50.794;7.054;2022-07-18T04:25:36;101702.84;;;16.49;62.27
72925;BME280;61070;50.794;7.054;2022-07-18T04:28:02;101706.25;;;16.57;61.73
72925;BME280;61070;50.794;7.054;2022-07-18T04:30:29;101713.28;;;16.63;61.52
72925;BME280;61070;50.794;7.054;2022-07-18T04:32:55;101724.75;;;16.71;61.36
72925;BME280;61070;50.794;7.054;2022-07-18T04:35:22;101719.53;;;16.62;61.03
72925;BME280;61070;50.794;7.054;2022-07-18T04:37:49;101710.41;;;16.74;60.85
72925;BME280;61070;50.794;7.054;2022-07-18T04:40:15;101707.69;;;16.75;60.63
72925;BME280;61070;50.794;7.054;2022-07-18T04:42:41;101697.69;;;16.85;60.32
72925;BME280;61070;50.794;7.054;2022-07-18T04:45:06;101702.78;;;16.96;60.32
72925;BME280;61070;50.794;7.054;2022-07-18T04:47:33;101689.50;;;16.93;60.34
72925;BME280;61070;50.794;7.054;2022-07-18T04:49:58;101697.53;;;16.93;60.35
72925;BME280;61070;50.794;7.054;2022-07-18T04:52:24;101695.84;;;16.88;60.50
72925;BME280;61070;50.794;7.054;2022-07-18T04:54:49;101694.31;;;16.77;60.83
72925;BME280;61070;50.794;7.054;2022-07-18T04:57:16;101699.63;;;16.78;60.62
72925;BME280;61070;50.794;7.054;2022-07-18T04:59:41;101697.91;;;16.74;60.67
72925;BME280;61070;50.794;7.054;2022-07-18T05:02:08;101694.81;;;16.94;60.02
72925;BME280;61070;50.794;7.054;2022-07-18T05:04:33;101701.34;;;16.81;59.98
72925;BME280;61070;50.794;7.054;2022-07-18T05:06:59;101699.03;;;17.04;59.54
72925;BME280;61070;50.794;7.054;2022-07-18T05:09:25;101694.06;;;16.86;60.19
72925;BME280;61070;50.794;7.054;2022-07-18T05:11:50;101693.75;;;17.01;60.10
72925;BME280;61070;50.794;7.054;2022-07-18T05:14:16;101694.56;;;17.05;59.76
72925;BME280;61070;50.794;7.054;2022-07-18T05:16:41;101682.91;;;17.07;59.64
72925;BME280;61070;50.794;7.054;2022-07-18T05:19:06;101685.44;;;17.13;59.13
72925;BME280;61070;50.794;7.054;2022-07-18T05:21:32;101686.84;;;17.30;58.31
72925;BME280;61070;50.794;7.054;2022-07-18T05:23:57;101686.78;;;17.33;57.62
72925;BME280;61070;50.794;7.054;2022-07-18T05:26:22;101684.06;;;17.34;57.01
72925;BME280;61070;50.794;7.054;2022-07-18T05:28:47;101696.41;;;17.40;56.68
72925;BME280;61070;50.794;7.054;2022-07-18T05:31:13;101692.72;;;17.45;56.75
72925;BME280;61070;50.794;7.054;2022-07-18T05:33:38;101697.72;;;17.59;56.11
72925;BME280;61070;50.794;7.054;2022-07-18T05:36:04;101692.84;;;17.78;55.96
72925;BME280;61070;50.794;7.054;2022-07-18T05:38:29;101697.97;;;17.86;55.65
72925;BME280;61070;50.794;7.054;2022-07-18T05:40:55;101694.03;;;17.99;55.40
72925;BME280;61070;50.794;7.054;2022-07-18T05:43:20;101690.28;;;18.06;54.35
72925;BME280;61070;50.794;7.054;2022-07-18T05:45:45;101697.03;;;18.21;53.97
72925;BME280;61070;50.794;7.054;2022-07-18T05:48:11;101696.44;;;18.42;53.01
72925;BME280;61070;50.794;7.054;2022-07-18T05:50:36;101693.66;;;18.45;52.90
72925;BME280;61070;50.794;7.054;2022-07-18T05:53:01;101701.19;;;18.63;52.62
72925;BME280;61070;50.794;7.054;2022-07-18T05:55:27;101693.63;;;18.47;52.93
72925;BME280;61070;50.794;7.054;2022-07-18T05:57:53;101696.69;;;18.66;53.06
72925;BME280;61070;50.794;7.054;2022-07-18T06:00:19;101689.34;;;18.72;52.30
72925;BME280;61070;50.794;7.054;2022-07-18T06:02:47;101674.84;;;18.78;52.27
72925;BME280;61070;50.794;7.054;2022-07-18T06:05:13;101673.41;;;18.96;51.96
72925;BME280;61070;50.794;7.054;2022-07-18T06:07:38;101684.91;;;18.99;51.21
72925;BME280;61070;50.794;7.054;2022-07-18T06:10:04;101678.44;;;19.06;51.02
72925;BME280;61070;50.794;7.054;2022-07-18T06:12:30;101682.44;;;19.21;50.74
72925;BME280;61070;50.794;7.054;2022-07-18T06:14:56;101669.66;;;19.29;50.66
72925;BME280;61070;50.794;7.054;2022-07-18T06:17:22;101683.09;;;19.29;51.02
72925;BME280;61070;50.794;7.054;2022-07-18T06:19:47;101664.63;;;19.45;50.76
72925;BME280;61070;50.794;7.054;2022-07-18T06:22:12;101670.09;;;19.70;49.85
72925;BME280;61070;50.794;7.054;2022-07-18T06:24:38;101669.06;;;19.74;49.67
72925;BME280;61070;50.794;7.054;2022-07-18T06:27:03;101669.03;;;19.75;49.23
72925;BME280;61070;50.794;7.054;2022-07-18T06:29:28;101666.78;;;19.88;48.84
72925;BME280;61070;50.794;7.054;2022-07-18T06:31:54;101661.16;;;19.96;47.77
72925;BME280;61070;50.794;7.054;2022-07-18T06:34:19;101659.03;;;20.04;47.53
72925;BME280;61070;50.794;7.054;2022-07-18T06:36:44;101664.38;;;20.05;47.26
72925;BME280;61070;50.794;7.054;2022-07-18T06:39:10;101657.63;;;20.19;47.44
72925;BME280;61070;50.794;7.054;2022-07-18T06:41:39;101659.13;;;20.26;46.94
72925;BME280;61070;50.794;7.054;2022-07-18T06:44:05;101654.09;;;20.42;46.52
72925;BME280;61070;50.794;7.054;2022-07-18T06:46:31;101651.91;;;20.53;46.72
72925;BME280;61070;50.794;7.054;2022-07-18T06:48:57;101660.19;;;20.70;46.04
72925;BME280;61070;50.794;7.054;2022-07-18T06:51:22;101656.78;;;20.88;45.80
72925;BME280;61070;50.794;7.054;2022-07-18T06:53:47;101657.53;;;20.92;45.35
72925;BME280;61070;50.794;7.054;2022-07-18T06:56:12;101651.38;;;21.12;45.36
72925;BME280;61070;50.794;7.054;2022-07-18T06:58:38;101648.63;;;21.35;45.08
72925;BME280;61070;50.794;7.054;2022-07-18T07:01:03;101643.81;;;21.43;44.51
72925;BME280;61070;50.794;7.054;2022-07-18T07:03:29;101652.31;;;21.55;44.29
72925;BME280;61070;50.794;7.054;2022-07-18T07:05:55;101652.81;;;21.64;44.57
72925;BME280;61070;50.794;7.054;2022-07-18T07:08:20;101652.53;;;21.70;44.16
72925;BME280;61070;50.794;7.054;2022-07-18T07:10:45;101649.84;;;21.91;44.04
72925;BME280;61070;50.794;7.054;2022-07-18T07:13:11;101647.88;;;21.94;43.49
72925;BME280;61070;50.794;7.054;2022-07-18T07:15:36;101649.09;;;22.09;43.43
72925;BME280;61070;50.794;7.054;2022-07-18T07:18:02;101645.94;;;22.18;43.08
72925;BME280;61070;50.794;7.054;2022-07-18T07:20:27;101639.88;;;22.52;42.64
72925;BME280;61070;50.794;7.054;2022-07-18T07:22:55;101634.66;;;22.68;40.98
72925;BME280;61070;50.794;7.054;2022-07-18T07:25:22;101639.63;;;22.96;40.55
72925;BME280;61070;50.794;7.054;2022-07-18T07:27:48;101642.84;;;23.04;39.70
72925;BME280;61070;50.794;7.054;2022-07-18T07:30:14;101642.88;;;23.21;39.77
72925;BME280;61070;50.794;7.054;2022-07-18T07:32:42;101636.81;;;23.35;39.36
72925;BME280;61070;50.794;7.054;2022-07-18T07:35:09;101628.94;;;23.48;39.03
72925;BME280;61070;50.794;7.054;2022-07-18T07:37:43;101631.06;;;23.60;38.63
72925;BME280;61070;50.794;7.054;2022-07-18T07:40:10;101628.41;;;23.76;38.34
72925;BME280;61070;50.794;7.054;2022-07-18T07:42:36;101629.72;;;23.69;37.59
72925;BME280;61070;50.794;7.054;2022-07-18T07:45:02;101616.94;;;23.88;37.89
72925;BME280;61070;50.794;7.054;2022-07-18T07:47:27;101624.72;;;24.11;36.95
72925;BME280;61070;50.794;7.054;2022-07-18T07:49:56;101624.56;;;24.32;36.87
72925;BME280;61070;50.794;7.054;2022-07-18T07:52:22;101624.66;;;24.46;37.42
72925;BME280;61070;50.794;7.054;2022-07-18T07:54:49;101628.59;;;24.41;36.00
72925;BME280;61070;50.794;7.054;2022-07-18T07:57:15;101617.06;;;24.37;36.58
72925;BME280;61070;50.794;7.054;2022-07-18T07:59:41;101612.44;;;24.55;35.64
72925;BME280;61070;50.794;7.054;2022-07-18T08:02:06;101613.34;;;24.71;35.29
72925;BME280;61070;50.794;7.054;2022-07-18T08:04:31;101604.94;;;24.76;35.26
72925;BME280;61070;50.794;7.054;2022-07-18T08:06:57;101604.94;;;24.91;34.55
72925;BME280;61070;50.794;7.054;2022-07-18T08:09:22;101601.75;;;25.16;34.86
72925;BME280;61070;50.794;7.054;2022-07-18T08:11:47;101599.88;;;25.33;33.99
72925;BME280;61070;50.794;7.054;2022-07-18T08:14:13;101612.75;;;25.59;33.75
72925;BME280;61070;50.794;7.054;2022-07-18T08:16:38;101609.06;;;25.76;32.99
72925;BME280;61070;50.794;7.054;2022-07-18T08:19:04;101607.72;;;25.83;33.61
72925;BME280;61070;50.794;7.054;2022-07-18T08:21:29;101608.97;;;25.92;32.59
72925;BME280;61070;50.794;7.054;2022-07-18T08:23:54;101610.91;;;25.75;32.97
72925;BME280;61070;50.794;7.054;2022-07-18T08:26:20;101605.22;;;25.94;32.92
72925;BME280;61070;50.794;7.054;2022-07-18T08:28:45;101607.38;;;26.18;32.34
72925;BME280;61070;50.794;7.054;2022-07-18T08:31:11;101611.66;;;26.50;31.52
72925;BME280;61070;50.794;7.054;2022-07-18T08:33:36;101604.78;;;26.45;31.55
72925;BME280;61070;50.794;7.054;2022-07-18T08:36:02;101597.56;;;26.58;30.95
72925;BME280;61070;50.794;7.054;2022-07-18T08:38:27;101599.31;;;26.59;30.97
72925;BME280;61070;50.794;7.054;2022-07-18T08:40:53;101599.56;;;26.83;31.54
72925;BME280;61070;50.794;7.054;2022-07-18T08:43:19;101592.66;;;26.91;30.89
72925;BME280;61070;50.794;7.054;2022-07-18T08:45:45;101587.44;;;27.15;30.40
72925;BME280;61070;50.794;7.054;2022-07-18T08:48:15;101588.09;;;26.92;30.07
72925;BME280;61070;50.794;7.054;2022-07-18T08:50:42;101590.84;;;27.19;30.79
72925;BME280;61070;50.794;7.054;2022-07-18T08:53:08;101592.88;;;27.42;30.30
72925;BME280;61070;50.794;7.054;2022-07-18T08:55:35;101583.72;;;27.70;30.04
72925;BME280;61070;50.794;7.054;2022-07-18T08:58:00;101583.63;;;27.97;29.60
72925;BME280;61070;50.794;7.054;2022-07-18T09:00:26;101585.38;;;27.98;29.87
72925;BME280;61070;50.794;7.054;2022-07-18T09:03:02;101581.09;;;28.20;29.10
72925;BME280;61070;50.794;7.054;2022-07-18T09:05:28;101584.94;;;28.30;29.17
72925;BME280;61070;50.794;7.054;2022-07-18T09:08:15;101584.03;;;28.42;28.54
72925;BME280;61070;50.794;7.054;2022-07-18T09:10:55;101582.75;;;28.48;28.47
72925;BME280;61070;50.794;7.054;2022-07-18T09:13:25;101582.00;;;28.82;27.79
72925;BME280;61070;50.794;7.054;2022-07-18T09:16:05;101571.59;;;28.87;27.59
72925;BME280;61070;50.794;7.054;2022-07-18T09:18:33;101591.16;;;28.81;27.32
72925;BME280;61070;50.794;7.054;2022-07-18T09:21:10;101566.78;;;-48.17;27.54
72925;BME280;61070;50.794;7.054;2022-07-18T09:23:38;101567.63;;;29.28;27.02
72925;BME280;61070;50.794;7.054;2022-07-18T09:26:04;101571.91;;;53.41;26.63
72925;BME280;61070;50.794;7.054;2022-07-18T09:28:48;101564.81;;;108.16;26.27
72925;BME280;61070;50.794;7.054;2022-07-18T09:31:21;101558.09;;;29.58;25.65
72925;BME280;61070;50.794;7.054;2022-07-18T09:33:54;101557.22;;;29.57;26.47
72925;BME280;61070;50.794;7.054;2022-07-18T09:36:20;101560.97;;;-100.21;24.65
72925;BME280;61070;50.794;7.054;2022-07-18T09:38:45;101563.03;;;-109.32;24.70
72925;BME280;61070;50.794;7.054;2022-07-18T09:41:11;101560.97;;;143.37;24.59
72925;BME280;61070;50.794;7.054;2022-07-18T09:43:38;101555.63;;;139.45;25.15
72925;BME280;61070;50.794;7.054;2022-07-18T09:46:04;101555.78;;;-140.53;24.48
72925;BME280;61070;50.794;7.054;2022-07-18T09:48:30;101548.78;;;-61.18;23.24
72925;BME280;61070;50.794;7.054;2022-07-18T09:51:05;101543.78;;;-19.53;22.18
72925;BME280;61070;50.794;7.054;2022-07-18T09:56:09;101542.72;;;30.91;20.30
72925;BME280;61070;50.794;7.054;2022-07-18T09:58:37;101542.13;;;59.93;19.22
72925;BME280;61070;50.794;7.054;2022-07-18T10:01:05;101539.75;;;105.55;19.53
72925;BME280;61070;50.794;7.054;2022-07-18T10:03:31;101547.13;;;76.87;19.33
72925;BME280;61070;50.794;7.054;2022-07-18T10:05:59;101547.66;;;142.06;18.01
72925;BME280;61070;50.794;7.054;2022-07-18T10:08:28;101554.31;;;-91.11;18.72
72925;BME280;61070;50.794;7.054;2022-07-18T10:20:44;101559.41;;;-132.73;19.78
72925;BME280;61070;50.794;7.054;2022-07-18T10:25:38;101552.72;;;31.13;20.27
72925;BME280;61070;50.794;7.054;2022-07-18T10:30:37;101534.78;;;-79.40;20.66
72925;BME280;61070;50.794;7.054;2022-07-18T10:38:22;101533.91;;;-79.40;20.48
72925;BME280;61070;50.794;7.054;2022-07-18T10:41:05;101530.84;;;9.12;21.00
72925;BME280;61070;50.794;7.054;2022-07-18T10:45:59;101520.84;;;-144.43;20.06
72925;BME280;61070;50.794;7.054;2022-07-18T10:59:16;101510.22;;;32.72;19.75
72925;BME280;61070;50.794;7.054;2022-07-18T11:01:52;101520.25;;;129.02;19.19
72925;BME280;61070;50.794;7.054;2022-07-18T11:04:29;101516.31;;;31.96;19.51
72925;BME280;61070;50.794;7.054;2022-07-18T11:07:14;101522.28;;;-7.81;19.49
72925;BME280;61070;50.794;7.054;2022-07-18T11:17:57;101513.50;;;164.24;19.27
72925;BME280;61070;50.794;7.054;2022-07-18T11:25:17;101493.91;;;32.71;19.52
72925;BME280;61070;50.794;7.054;2022-07-18T11:37:24;101489.91;;;32.85;19.06
72925;BME280;61070;50.794;7.054;2022-07-18T11:39:49;92018.50;;;33.14;18.89
72925;BME280;61070;50.794;7.054;2022-07-18T11:42:14;101497.41;;;33.41;18.98
72925;BME280;61070;50.794;7.054;2022-07-18T11:44:41;101492.34;;;-144.43;18.69
72925;BME280;61070;50.794;7.054;2022-07-18T11:47:09;101492.34;;;-144.43;18.69
72925;BME280;61070;50.794;7.054;2022-07-18T11:54:26;101483.69;;;-97.61;18.20
72925;BME280;61070;50.794;7.054;2022-07-18T11:59:20;74199.03;;;33.03;18.52
72925;BME280;61070;50.794;7.054;2022-07-18T12:01:45;101473.56;;;-18.88;18.43
72925;BME280;61070;50.794;7.054;2022-07-18T12:07:19;101466.06;;;-144.43;18.15
72925;BME280;61070;50.794;7.054;2022-07-18T12:12:12;101460.44;;;-97.61;21.13
72925;BME280;61070;50.794;7.054;2022-07-18T12:14:38;101454.38;;;-144.43;60.88
72925;BME280;61070;50.794;7.054;2022-07-18T12:19:38;101448.25;;;33.84;nan
72925;BME280;61070;50.794;7.054;2022-07-18T12:24:52;74045.50;;;-144.43;60.82
72925;BME280;61070;50.794;7.054;2022-07-18T12:27:35;74001.06;;;-144.43;61.06
72925;BME280;61070;50.794;7.054;2022-07-18T12:30:11;73964.72;;;-97.61;100.00
72925;BME280;61070;50.794;7.054;2022-07-18T12:49:55;73841.50;;;-97.61;16.83
72925;BME280;61070;50.794;7.054;2022-07-18T12:52:20;59852.91;;;-144.43;100.00
72925;BME280;61070;50.794;7.054;2022-07-18T12:54:47;59852.91;;;-144.43;100.00
72925;BME280;61070;50.794;7.054;2022-07-18T12:57:13;106200.19;;;62.53;15.44
72925;BME280;61070;50.794;7.054;2022-07-18T12:59:38;65118.78;;;-144.43;7.65
72925;BME280;61070;50.794;7.054;2022-07-18T13:06:54;59852.91;;;-144.43;20.04
72925;BME280;61070;50.794;7.054;2022-07-18T13:09:20;59852.91;;;-144.43;100.00
72925;BME280;61070;50.794;7.054;2022-07-18T13:11:47;73791.00;;;-144.43;100.00
72925;BME280;61070;50.794;7.054;2022-07-18T13:14:14;78302.31;;;-111.92;100.00
72925;BME280;61070;50.794;7.054;2022-07-18T13:16:40;73836.59;;;-144.43;62.08
72925;BME280;61070;50.794;7.054;2022-07-18T13:19:08;73784.06;;;-144.43;68.64
72925;BME280;61070;50.794;7.054;2022-07-18T13:21:33;43324.13;;;33.87;19.69
72925;BME280;61070;50.794;7.054;2022-07-18T13:23:59;59852.91;;;-144.43;100.00
72925;BME280;61070;50.794;7.054;2022-07-18T13:26:24;73830.50;;;-144.43;61.80
72925;BME280;61070;50.794;7.054;2022-07-18T13:28:50;59852.91;;;-144.43;100.00
72925;BME280;61070;50.794;7.054;2022-07-18T13:31:15;73844.03;;;-95.01;20.11
72925;BME280;61070;50.794;7.054;2022-07-18T13:33:40;58233.25;;;-144.43;100.00
72925;BME280;61070;50.794;7.054;2022-07-18T13:36:06;59852.91;;;-144.43;100.00
72925;BME280;61070;50.794;7.054;2022-07-18T13:38:31;59852.91;;;-144.43;100.00
72925;BME280;61070;50.794;7.054;2022-07-18T13:43:22;59852.91;;;-144.43;100.00
72925;BME280;61070;50.794;7.054;2022-07-18T13:45:47;59852.91;;;-144.43;0.00
72925;BME280;61070;50.794;7.054;2022-07-18T13:48:12;59852.91;;;-144.43;100.00
72925;BME280;61070;50.794;7.054;2022-07-18T13:50:38;101703.53;;;-144.43;100.00
72925;BME280;61070;50.794;7.054;2022-07-18T13:53:03;59852.91;;;-144.43;100.00
72925;BME280;61070;50.794;7.054;2022-07-18T13:55:29;59852.91;;;-144.43;100.00
72925;BME280;61070;50.794;7.054;2022-07-18T13:57:54;59852.91;;;-144.43;100.00
72925;BME280;61070;50.794;7.054;2022-07-18T14:00:19;59852.91;;;-144.43;100.00
72925;BME280;61070;50.794;7.054;2022-07-18T14:02:45;59852.91;;;-144.43;100.00
72925;BME280;61070;50.794;7.054;2022-07-18T14:05:10;59852.91;;;-144.43;100.00
72925;BME280;61070;50.794;7.054;2022-07-18T14:07:35;59852.91;;;-144.43;100.00
72925;BME280;61070;50.794;7.054;2022-07-18T14:10:01;59852.91;;;-144.43;100.00
72925;BME280;61070;50.794;7.054;2022-07-18T14:12:26;59852.91;;;-144.43;100.00
72925;BME280;61070;50.794;7.054;2022-07-18T14:14:51;59852.91;;;-144.43;100.00
72925;BME280;61070;50.794;7.054;2022-07-18T14:17:17;59852.91;;;-144.43;100.00
72925;BME280;61070;50.794;7.054;2022-07-18T14:19:42;59852.91;;;-62.48;100.00
72925;BME280;61070;50.794;7.054;2022-07-18T14:22:07;59852.91;;;-144.43;100.00
72925;BME280;61070;50.794;7.054;2022-07-18T14:24:35;59852.91;;;-144.43;100.00
72925;BME280;61070;50.794;7.054;2022-07-18T14:27:00;59852.91;;;-144.43;100.00